Time;durP1;ratioP1;P1;durP2;ratioP2;P2;SDS_P1;SDS_P2;PMS_P1;PMS_P2;Temp;Humidity;BMP_temperature;BMP_pressure;BME280_temperature;BME280_humidity;BME280_pressure;Samples;Min_cycle;Max_cycle;Signal;HPM_P1;HPM_P2
2022/12/05 00:02:18;;;;;;;24.95;14.38;;;19.10;94.30;;;;;;5048256;28;20066;-68
2022/12/05 00:04:44;;;;;;;25.83;13.90;;;19.00;95.20;;;;;;5050331;28;20554;-68
2022/12/05 00:07:11;;;;;;;32.55;14.27;;;19.00;95.00;;;;;;5050243;28;20084;-69
2022/12/05 00:09:37;;;;;;;33.92;15.55;;;19.00;94.80;;;;;;5046949;28;20112;-67
2022/12/05 00:12:04;;;;;;;22.10;13.05;;;19.00;94.60;;;;;;5046007;28;20098;-68
2022/12/05 00:14:30;;;;;;;64.50;46.70;;;18.90;94.80;;;;;;5041597;28;20066;-65
2022/12/05 00:16:56;;;;;;;38.45;24.70;;;18.90;94.70;;;;;;5048218;28;20081;-64
2022/12/05 00:19:23;;;;;;;40.85;26.50;;;18.80;94.90;;;;;;5049200;28;20152;-68
2022/12/05 00:21:49;;;;;;;30.45;16.52;;;18.70;95.00;;;;;;5049809;28;20074;-67
2022/12/05 00:24:16;;;;;;;30.92;18.02;;;18.60;95.00;;;;;;5050158;28;20073;-69
2022/12/05 00:26:43;;;;;;;34.90;16.67;;;18.60;95.30;;;;;;5050372;28;20081;-66
2022/12/05 00:29:11;;;;;;;33.05;15.52;;;18.50;95.70;;;;;;5051475;28;20410;-68
2022/12/05 00:31:37;;;;;;;36.13;16.15;;;18.50;96.10;;;;;;5050157;28;20096;-67
2022/12/05 00:34:04;;;;;;;30.45;15.25;;;18.30;96.50;;;;;;5049432;28;20082;-69
2022/12/05 00:36:32;;;;;;;21.50;14.60;;;18.20;97.10;;;;;;5041859;28;20442;-67
2022/12/05 00:39:01;;;;;;;26.05;14.07;;;18.00;97.50;;;;;;5039589;28;20065;-67
2022/12/05 00:41:29;;;;;;;28.05;15.10;;;17.90;97.50;;;;;;5044271;28;20068;-69
2022/12/05 00:43:57;;;;;;;31.70;16.27;;;17.90;97.50;;;;;;5041874;28;20537;-66
2022/12/05 00:46:26;;;;;;;28.23;16.25;;;17.80;97.60;;;;;;5044759;28;20157;-67
2022/12/05 00:48:54;;;;;;;26.35;16.27;;;17.60;97.90;;;;;;5050094;28;20070;-67
2022/12/05 00:51:27;;;;;;;38.33;17.02;;;17.60;98.20;;;;;;5048428;28;20098;-67
2022/12/05 00:53:54;;;;;;;30.30;16.67;;;17.50;98.50;;;;;;5047904;28;20148;-67
2022/12/05 00:56:22;;;;;;;42.25;17.35;;;17.50;99.00;;;;;;5048530;28;20089;-66
2022/12/05 00:58:51;;;;;;;37.28;16.05;;;17.40;99.60;;;;;;5045761;28;20085;-66
2022/12/05 01:01:22;;;;;;;32.72;17.58;;;17.30;99.90;;;;;;5049591;28;20110;-67
2022/12/05 01:03:51;;;;;;;37.80;17.63;;;17.20;99.90;;;;;;5050137;28;20088;-67
2022/12/05 01:06:18;;;;;;;39.03;19.08;;;17.10;99.90;;;;;;5048333;28;20105;-66
2022/12/05 01:08:44;;;;;;;34.08;17.42;;;17.00;99.90;;;;;;5049480;28;20632;-67
2022/12/05 01:11:15;;;;;;;40.38;17.42;;;17.00;99.90;;;;;;5050029;28;20176;-68
2022/12/05 01:13:42;;;;;;;34.05;18.92;;;16.90;99.90;;;;;;5048117;28;20072;-65
2022/12/05 01:16:21;;;;;;;45.55;20.15;;;16.80;99.90;;;;;;5048094;28;20069;-65
2022/12/05 01:18:48;;;;;;;40.83;20.70;;;16.70;99.90;;;;;;5049117;28;20069;-65
2022/12/05 01:21:14;;;;;;;38.13;19.95;;;16.60;99.90;;;;;;5049328;28;20164;-66
2022/12/05 01:23:41;;;;;;;36.03;20.27;;;16.60;99.90;;;;;;5049015;28;20069;-67
2022/12/05 01:26:11;;;;;;;40.50;20.98;;;16.60;99.90;;;;;;5049733;28;20076;-66
2022/12/05 01:28:39;;;;;;;47.03;21.15;;;16.50;99.90;;;;;;5048299;28;21531;-65
2022/12/05 01:31:07;;;;;;;41.45;21.00;;;16.40;99.90;;;;;;5048615;28;20100;-67
2022/12/05 01:33:34;;;;;;;42.28;21.65;;;16.40;99.90;;;;;;5050398;28;20092;-67
2022/12/05 01:36:03;;;;;;;53.60;22.50;;;16.30;99.90;;;;;;5049996;28;20074;-68
2022/12/05 01:38:29;;;;;;;46.03;22.08;;;16.20;99.90;;;;;;5048820;28;20066;-66
2022/12/05 01:41:07;;;;;;;47.08;22.58;;;16.20;99.90;;;;;;5050128;28;20084;-66
2022/12/05 01:43:51;;;;;;;44.47;21.92;;;16.10;99.90;;;;;;5048820;28;20160;-67
2022/12/05 01:46:18;;;;;;;45.95;23.60;;;16.10;99.90;;;;;;5049026;28;20151;-69
2022/12/05 01:48:44;;;;;;;54.83;26.05;;;16.00;99.90;;;;;;5048751;28;20074;-66
2022/12/05 01:51:11;;;;;;;59.25;26.58;;;16.00;99.90;;;;;;5048635;28;20080;-67
2022/12/05 01:53:38;;;;;;;53.70;23.77;;;15.90;99.90;;;;;;5049794;28;20074;-68
2022/12/05 01:56:04;;;;;;;50.25;26.35;;;15.90;99.90;;;;;;5050398;28;20101;-70
2022/12/05 01:58:35;;;;;;;66.63;31.15;;;15.90;99.90;;;;;;5048851;28;20140;-66
2022/12/05 02:01:01;;;;;;;58.13;29.17;;;15.80;99.90;;;;;;5048169;28;20066;-67
2022/12/05 02:03:27;;;;;;;62.33;32.15;;;15.80;99.90;;;;;;5048293;28;20109;-66
2022/12/05 02:05:56;;;;;;;67.10;31.80;;;15.80;99.90;;;;;;5049873;28;20112;-66
2022/12/05 02:08:23;;;;;;;65.15;31.77;;;15.80;99.90;;;;;;5047858;28;20069;-67
2022/12/05 02:10:53;;;;;;;67.95;30.60;;;15.80;99.90;;;;;;5048927;28;20077;-67
2022/12/05 02:13:31;;;;;;;70.43;32.15;;;15.70;99.90;;;;;;5049605;28;20546;-65
2022/12/05 02:16:22;;;;;;;88.20;34.83;;;15.60;99.90;;;;;;5053383;28;20097;-67
2022/12/05 02:18:58;;;;;;;76.07;35.33;;;15.60;99.90;;;;;;5052646;28;20074;-66
2022/12/05 02:21:49;;;;;;;66.05;33.40;;;15.60;99.90;;;;;;5053023;28;20081;-67
2022/12/05 02:24:27;;;;;;;76.93;34.40;;;15.50;99.90;;;;;;5051020;28;20073;-65
2022/12/05 02:27:15;;;;;;;67.80;35.75;;;15.50;99.90;;;;;;5053647;28;20113;-66
2022/12/05 02:30:11;;;;;;;81.00;37.38;;;15.40;99.90;;;;;;5050959;28;20077;-68
2022/12/05 02:32:50;;;;;;;84.85;38.70;;;15.40;99.90;;;;;;5052558;28;20096;-66
2022/12/05 02:35:34;;;;;;;82.75;39.63;;;15.40;99.90;;;;;;5053968;28;20070;-67
2022/12/05 02:38:17;;;;;;;79.53;37.35;;;15.30;99.90;;;;;;5050010;28;20480;-68
2022/12/05 02:41:04;;;;;;;91.15;40.35;;;15.30;99.90;;;;;;5049985;28;20400;-66
2022/12/05 02:43:43;;;;;;;80.53;39.67;;;15.40;99.90;;;;;;5001848;28;20085;-68
2022/12/05 02:46:22;;;;;;;93.25;40.30;;;15.30;99.90;;;;;;5050393;28;20070;-68
2022/12/05 02:48:54;;;;;;;93.68;41.90;;;15.30;99.90;;;;;;5051906;28;20089;-69
2022/12/05 02:51:24;;;;;;;86.43;41.30;;;15.30;99.90;;;;;;5051707;28;20082;-68
2022/12/05 02:53:52;;;;;;;80.45;38.63;;;15.30;99.90;;;;;;5051466;28;20126;-66
2022/12/05 02:56:19;;;;;;;81.07;38.33;;;15.30;99.90;;;;;;5050110;28;20070;-70
2022/12/05 02:58:52;;;;;;;90.90;41.58;;;15.20;99.90;;;;;;5052198;28;20083;-68
2022/12/05 03:01:23;;;;;;;72.10;38.83;;;15.10;99.90;;;;;;5050679;28;20065;-70
2022/12/05 03:03:49;;;;;;;97.15;45.70;;;15.10;99.90;;;;;;5049671;28;20210;-67
2022/12/05 03:06:40;;;;;;;83.85;43.80;;;15.00;99.90;;;;;;5051986;28;20109;-69
2022/12/05 03:09:20;;;;;;;81.55;45.55;;;15.10;99.90;;;;;;5050612;28;20078;-68
2022/12/05 03:12:25;;;;;;;89.75;47.33;;;15.10;99.90;;;;;;5050201;28;20150;-67
2022/12/05 03:15:23;;;;;;;95.38;47.08;;;15.00;99.90;;;;;;4997369;28;20606;-67
2022/12/05 03:17:55;;;;;;;;;;;15.00;99.90;;;;;;4924440;29;20159;-67
2022/12/05 03:20:27;;;;;;;106.53;48.63;;;15.00;99.90;;;;;;4929423;29;19956;-66
2022/12/05 03:23:07;;;;;;;112.88;50.92;;;14.90;99.90;;;;;;4924964;29;20693;-67
2022/12/05 03:26:10;;;;;;;108.53;54.60;;;14.90;99.90;;;;;;4923223;29;20092;-67
2022/12/05 03:28:43;;;;;;;101.45;46.28;;;14.90;99.90;;;;;;4922526;29;20443;-68
2022/12/05 03:31:13;;;;;;;108.88;39.67;;;14.90;99.90;;;;;;4921330;29;20113;-67
2022/12/05 03:33:44;;;;;;;90.20;40.85;;;14.90;99.90;;;;;;4923865;29;20084;-65
2022/12/05 03:36:25;;;;;;;75.72;39.05;;;14.90;99.90;;;;;;4926765;29;20077;-68
2022/12/05 03:39:21;;;;;;;68.32;38.38;;;14.90;99.90;;;;;;4922600;29;20107;-69
2022/12/05 03:42:16;;;;;;;78.60;37.22;;;14.80;99.90;;;;;;4919758;29;20171;-66
2022/12/05 03:45:02;;;;;;;88.05;40.38;;;14.70;99.90;;;;;;4917972;29;20618;-67
2022/12/05 03:47:40;;;;;;;97.47;41.53;;;14.60;99.90;;;;;;4924271;29;22158;-65
2022/12/05 03:50:27;;;;;;;93.10;40.80;;;14.70;99.90;;;;;;4927592;29;20201;-67
2022/12/05 03:53:04;;;;;;;81.18;40.53;;;14.70;99.90;;;;;;4936576;29;20481;-65
2022/12/05 03:55:35;;;;;;;71.93;37.35;;;14.70;99.90;;;;;;5049369;28;20073;-65
2022/12/05 03:58:17;;;;;;;79.88;41.40;;;14.60;99.90;;;;;;5051066;28;20450;-67
2022/12/05 04:00:49;;;;;;;84.47;41.20;;;14.60;99.90;;;;;;5048819;28;20069;-66
2022/12/05 04:03:24;;;;;;;80.68;38.80;;;14.70;99.90;;;;;;5050814;28;20085;-68
2022/12/05 04:05:58;;;;;;;85.82;40.58;;;14.60;99.90;;;;;;5049901;28;20469;-66
2022/12/05 04:08:51;;;;;;;94.45;40.33;;;14.60;99.90;;;;;;5050134;28;20080;-67
2022/12/05 04:11:21;;;;;;;82.70;40.58;;;14.50;99.90;;;;;;5043605;28;20098;-66
2022/12/05 04:14:12;;;;;;;81.07;39.25;;;14.50;99.90;;;;;;5050238;28;20081;-69
2022/12/05 04:17:02;;;;;;;83.95;38.55;;;14.40;99.90;;;;;;5049106;28;20066;-67
2022/12/05 04:22:24;;;;;;;73.45;37.92;;;14.50;99.90;;;;;;5050304;28;20073;-69
2022/12/05 04:27:37;;;;;;;80.90;38.73;;;14.30;99.90;;;;;;5048366;28;20131;-70
2022/12/05 04:30:03;;;;;;;;;;;14.40;99.90;;;;;;5051506;28;20500;-67
2022/12/05 04:32:47;;;;;;;82.57;41.85;;;14.30;99.90;;;;;;5049694;28;19995;-68
2022/12/05 04:35:19;;;;;;;84.57;41.47;;;14.30;99.90;;;;;;5048486;28;20082;-66
2022/12/05 04:37:50;;;;;;;76.03;38.20;;;14.30;99.90;;;;;;5049083;28;20074;-68
2022/12/05 04:40:26;;;;;;;80.00;38.95;;;14.30;99.90;;;;;;5050153;28;20073;-66
2022/12/05 04:42:55;;;;;;;84.88;42.90;;;14.30;99.90;;;;;;5049608;28;20176;-66
2022/12/05 04:45:24;;;;;;;97.35;48.58;;;14.20;99.90;;;;;;5049337;28;20113;-67
2022/12/05 04:47:57;;;;;;;116.47;54.42;;;14.20;99.90;;;;;;5048850;28;20534;-67
2022/12/05 04:50:27;;;;;;;94.28;50.72;;;14.20;99.90;;;;;;5050491;28;20077;-71
2022/12/05 04:52:56;;;;;;;98.25;52.75;;;14.30;99.90;;;;;;5049752;28;20101;-68
2022/12/05 04:55:28;;;;;;;107.00;50.90;;;14.20;99.90;;;;;;5049960;28;20065;-70
2022/12/05 04:58:04;;;;;;;98.75;49.95;;;14.30;99.90;;;;;;5048336;28;20115;-67
2022/12/05 05:00:34;;;;;;;85.50;44.42;;;14.30;99.90;;;;;;5047227;28;20168;-70
2022/12/05 05:03:09;;;;;;;90.07;44.03;;;14.30;99.90;;;;;;5050751;28;20073;-71
2022/12/05 05:05:37;;;;;;;102.22;46.95;;;14.30;99.90;;;;;;5048529;28;20530;-69
2022/12/05 05:08:04;;;;;;;92.97;48.80;;;14.30;99.90;;;;;;5050238;28;20438;-69
2022/12/05 05:10:43;;;;;;;104.40;49.75;;;14.20;99.90;;;;;;5049580;28;20521;-70
2022/12/05 05:13:10;;;;;;;104.03;52.58;;;14.20;99.90;;;;;;5046950;28;20480;-68
2022/12/05 05:15:36;;;;;;;;;;;14.20;99.90;;;;;;5050658;28;20065;-68
2022/12/05 05:18:02;;;;;;;92.10;44.38;;;14.20;99.90;;;;;;5048319;28;19980;-69
2022/12/05 05:20:28;;;;;;;;;;;14.20;99.90;;;;;;5050717;28;20119;-70
2022/12/05 05:22:57;;;;;;;82.25;39.58;;;14.10;99.90;;;;;;5049463;28;19961;-69
2022/12/05 05:25:24;;;;;;;96.57;42.85;;;14.10;99.90;;;;;;5045743;28;20109;-72
2022/12/05 05:27:53;;;;;;;98.28;42.35;;;14.10;99.90;;;;;;5049752;28;20080;-70
2022/12/05 05:30:20;;;;;;;87.95;40.03;;;14.10;99.90;;;;;;5049779;28;20131;-69
2022/12/05 05:32:47;;;;;;;79.57;38.13;;;14.10;99.90;;;;;;5049054;28;20100;-70
2022/12/05 05:35:14;;;;;;;81.32;40.05;;;14.10;99.90;;;;;;5049245;28;20070;-69
2022/12/05 05:37:41;;;;;;;95.00;41.72;;;14.00;99.90;;;;;;5047654;28;20632;-71
2022/12/05 05:40:10;;;;;;;95.38;43.78;;;13.90;99.90;;;;;;5048869;28;20073;-68
2022/12/05 05:42:45;;;;;;;79.05;41.60;;;13.90;99.90;;;;;;5049801;28;20093;-67
2022/12/05 05:45:13;;;;;;;110.28;44.25;;;13.90;99.90;;;;;;5047926;28;20081;-69
2022/12/05 05:47:39;;;;;;;97.00;44.42;;;13.90;99.90;;;;;;5049525;28;20081;-70
2022/12/05 05:50:07;;;;;;;90.32;45.97;;;13.90;99.90;;;;;;5052165;28;20641;-67
2022/12/05 05:52:35;;;;;;;115.68;46.78;;;13.90;99.90;;;;;;5052451;28;20093;-67
2022/12/05 05:55:03;;;;;;;117.30;55.00;;;13.90;99.90;;;;;;5051463;28;20104;-68
2022/12/05 05:57:30;;;;;;;124.80;51.63;;;13.90;99.90;;;;;;5052174;28;20086;-70
2022/12/05 05:59:56;;;;;;;130.90;58.88;;;13.90;99.90;;;;;;5051582;28;20081;-72
2022/12/05 06:02:22;;;;;;;;;;;13.90;99.90;;;;;;5055168;28;20113;-71
2022/12/05 06:04:49;;;;;;;125.13;61.88;;;13.90;99.90;;;;;;5052041;28;19981;-72
2022/12/05 06:07:15;;;;;;;;;;;13.80;99.90;;;;;;5053051;28;20081;-73
2022/12/05 06:09:42;;;;;;;136.88;64.07;;;13.70;99.90;;;;;;5049525;28;19964;-72
2022/12/05 06:12:08;;;;;;;146.63;64.90;;;13.70;99.90;;;;;;5053297;28;20086;-70
2022/12/05 06:14:34;;;;;;;;;;;13.70;99.90;;;;;;5053231;28;20173;-70
2022/12/05 06:17:00;;;;;;;129.25;63.90;;;13.70;99.90;;;;;;5053072;28;20051;-71
2022/12/05 06:19:27;;;;;;;;;;;13.70;99.90;;;;;;5052973;28;20073;-72
2022/12/05 06:21:53;;;;;;;132.32;65.95;;;13.70;99.90;;;;;;5052735;28;19957;-74
2022/12/05 06:24:19;;;;;;;;;;;13.70;99.90;;;;;;5051915;28;20142;-70
2022/12/05 06:26:45;;;;;;;151.77;66.25;;;13.70;99.90;;;;;;5051655;28;20481;-72
2022/12/05 06:29:11;;;;;;;;;;;13.60;99.90;;;;;;5054427;28;20216;-71
2022/12/05 06:31:38;;;;;;;150.20;70.38;;;13.60;99.90;;;;;;5052704;28;20342;-69
2022/12/05 06:34:04;;;;;;;163.63;78.78;;;13.60;99.90;;;;;;5053545;28;20088;-73
2022/12/05 06:36:30;;;;;;;;;;;13.60;99.90;;;;;;5055153;28;20097;-68
2022/12/05 06:38:58;;;;;;;152.77;75.20;;;13.60;99.90;;;;;;5052550;28;20089;-73
2022/12/05 06:41:26;;;;;;;160.73;75.93;;;13.60;99.90;;;;;;5052244;28;20119;-71
2022/12/05 06:43:53;;;;;;;165.55;78.75;;;13.50;99.90;;;;;;5052156;28;20070;-71
2022/12/05 06:46:21;;;;;;;158.48;79.72;;;13.40;99.90;;;;;;5051217;28;20076;-72
2022/12/05 06:48:48;;;;;;;173.82;83.22;;;13.40;99.90;;;;;;5051811;28;20550;-72
2022/12/05 06:51:16;;;;;;;185.43;84.00;;;13.50;99.90;;;;;;5050088;28;20101;-72
2022/12/05 06:53:42;;;;;;;145.25;74.78;;;13.50;99.90;;;;;;5052723;28;20070;-67
2022/12/05 06:56:14;;;;;;;160.45;76.65;;;13.50;99.90;;;;;;5052649;28;20094;-76
2022/12/05 06:58:45;;;;;;;153.73;77.25;;;13.50;99.90;;;;;;5052249;28;20066;-71
2022/12/05 07:01:37;;;;;;;171.18;91.90;;;13.40;99.90;;;;;;5048077;28;20078;-71
2022/12/05 07:04:27;;;;;;;163.10;86.32;;;13.40;99.90;;;;;;5045260;28;20153;-72
2022/12/05 07:06:54;;;;;;;213.02;118.82;;;13.40;99.90;;;;;;5046505;28;20151;-73
2022/12/05 07:09:44;;;;;;;175.80;95.25;;;13.40;99.90;;;;;;5046247;28;20530;-70
2022/12/05 07:12:15;;;;;;;167.68;87.60;;;13.30;99.90;;;;;;5044658;28;20109;-70
2022/12/05 07:14:42;;;;;;;154.80;79.95;;;13.30;99.90;;;;;;5045245;28;20092;-70
2022/12/05 07:17:09;;;;;;;185.45;91.45;;;13.30;99.90;;;;;;5043740;28;20103;-72
2022/12/05 07:19:36;;;;;;;178.45;83.90;;;13.40;99.90;;;;;;5050331;28;20070;-72
2022/12/05 07:22:03;;;;;;;186.02;98.07;;;13.40;99.90;;;;;;5051288;28;20069;-71
2022/12/05 07:24:30;;;;;;;167.15;92.95;;;13.30;99.90;;;;;;5050097;28;20070;-70
2022/12/05 07:26:56;;;;;;;177.98;92.55;;;13.30;99.90;;;;;;5049541;28;20451;-71
2022/12/05 07:29:22;;;;;;;181.73;89.80;;;13.30;99.90;;;;;;5045573;28;20109;-71
2022/12/05 07:31:48;;;;;;;;;;;13.30;99.90;;;;;;5045876;28;20081;-71
2022/12/05 07:34:15;;;;;;;158.98;81.30;;;13.20;99.90;;;;;;5044472;28;19963;-69
2022/12/05 07:36:41;;;;;;;;;;;13.10;99.90;;;;;;5045003;28;20196;-73
2022/12/05 07:39:08;;;;;;;126.22;70.85;;;13.20;99.90;;;;;;5044404;28;20044;-69
2022/12/05 07:41:35;;;;;;;130.02;70.70;;;13.20;99.90;;;;;;5045585;28;20081;-68
2022/12/05 07:44:01;;;;;;;132.48;64.97;;;13.20;99.90;;;;;;5045420;28;20212;-69
2022/12/05 07:46:28;;;;;;;;;;;13.20;99.90;;;;;;5045516;28;20439;-70
2022/12/05 07:48:54;;;;;;;103.10;55.08;;;13.20;99.90;;;;;;5046213;28;20161;-71
2022/12/05 07:51:22;;;;;;;87.85;51.85;;;13.20;99.90;;;;;;5043891;28;20582;-71
2022/12/05 07:53:48;;;;;;;92.47;50.67;;;13.20;99.90;;;;;;5051472;28;20071;-70
2022/12/05 07:56:17;;;;;;;86.22;48.65;;;13.20;99.90;;;;;;5050157;28;20073;-70
2022/12/05 07:58:45;;;;;;;93.82;50.13;;;13.20;99.90;;;;;;5050725;28;21475;-70
2022/12/05 08:01:14;;;;;;;88.28;47.22;;;13.20;99.90;;;;;;5049522;28;20073;-71
2022/12/05 08:03:41;;;;;;;73.88;43.47;;;13.10;99.90;;;;;;5051169;28;20074;-67
2022/12/05 08:06:10;;;;;;;79.47;44.55;;;13.10;99.90;;;;;;5048860;28;20469;-73
2022/12/05 08:08:37;;;;;;;78.55;45.20;;;13.20;99.90;;;;;;5051383;28;20077;-71
2022/12/05 08:11:12;;;;;;;83.35;43.83;;;13.10;99.90;;;;;;5047886;28;20636;-71
2022/12/05 08:13:40;;;;;;;77.20;40.55;;;13.10;99.90;;;;;;5050491;28;20577;-69
2022/12/05 08:16:11;;;;;;;79.32;45.15;;;13.10;99.90;;;;;;5047249;28;20072;-69
2022/12/05 08:18:38;;;;;;;76.03;43.95;;;13.10;99.90;;;;;;5049931;28;20177;-71
2022/12/05 08:21:07;;;;;;;72.68;44.20;;;13.10;99.90;;;;;;5048365;28;20152;-73
2022/12/05 08:23:35;;;;;;;85.07;49.20;;;13.20;99.90;;;;;;5050403;28;20065;-69
2022/12/05 08:26:03;;;;;;;84.35;48.15;;;13.10;99.90;;;;;;5047420;28;20058;-72
2022/12/05 08:28:30;;;;;;;72.28;46.72;;;13.10;99.90;;;;;;5049112;28;20080;-71
2022/12/05 08:31:06;;;;;;;90.30;50.00;;;13.10;99.90;;;;;;5050793;28;20160;-72
2022/12/05 08:33:33;;;;;;;85.53;50.70;;;13.10;99.90;;;;;;5049622;28;20152;-69
2022/12/05 08:36:08;;;;;;;73.95;46.97;;;13.00;99.90;;;;;;5050571;28;20156;-71
2022/12/05 08:38:35;;;;;;;91.53;49.15;;;13.00;99.90;;;;;;5047043;28;20084;-70
2022/12/05 08:41:09;;;;;;;92.22;51.85;;;13.00;99.90;;;;;;5049284;28;20078;-71
2022/12/05 08:43:36;;;;;;;81.95;50.17;;;13.00;99.90;;;;;;5050181;28;20070;-70
2022/12/05 08:46:04;;;;;;;75.70;44.00;;;13.00;99.90;;;;;;5047910;28;20527;-73
2022/12/05 08:48:32;;;;;;;77.32;42.53;;;13.00;99.90;;;;;;5049762;28;20076;-69
2022/12/05 08:51:03;;;;;;;79.95;45.00;;;12.90;99.90;;;;;;5047806;28;20077;-70
2022/12/05 08:53:29;;;;;;;87.28;49.10;;;12.90;99.90;;;;;;5048584;28;20077;-70
2022/12/05 08:55:59;;;;;;;;;;;12.80;99.90;;;;;;5049404;28;20169;-70
2022/12/05 08:58:26;;;;;;;77.55;46.13;;;12.90;99.90;;;;;;5049164;28;20000;-72
2022/12/05 09:00:52;;;;;;;82.30;46.15;;;12.80;99.90;;;;;;5049401;28;20073;-70
2022/12/05 09:03:19;;;;;;;68.63;42.97;;;12.80;99.90;;;;;;5049509;28;20136;-69
2022/12/05 09:05:45;;;;;;;;;;;12.80;99.90;;;;;;5050099;28;20109;-68
2022/12/05 09:08:11;;;;;;;80.22;48.28;;;12.70;99.90;;;;;;5048358;28;19954;-70
2022/12/05 09:10:38;;;;;;;81.53;44.67;;;12.80;99.90;;;;;;5048292;28;20078;-75
2022/12/05 09:13:04;;;;;;;86.88;49.53;;;12.70;99.90;;;;;;5050074;28;20089;-72
2022/12/05 09:15:30;;;;;;;;;;;12.70;99.90;;;;;;5049985;28;20539;-69
2022/12/05 09:17:56;;;;;;;86.78;48.90;;;12.50;99.90;;;;;;5046781;28;19997;-71
2022/12/05 09:20:22;;;;;;;;;;;12.60;99.90;;;;;;5047924;28;20077;-68
2022/12/05 09:22:51;;;;;;;86.85;48.83;;;12.60;99.90;;;;;;5048395;28;19957;-70
2022/12/05 09:25:17;;;;;;;82.85;46.47;;;12.60;99.90;;;;;;5048089;28;20085;-70
2022/12/05 09:27:43;;;;;;;;;;;12.70;99.90;;;;;;5049495;28;20073;-69
2022/12/05 09:30:10;;;;;;;94.15;50.80;;;12.70;99.90;;;;;;5048524;28;20342;-70
2022/12/05 09:32:36;;;;;;;97.75;54.17;;;12.70;99.90;;;;;;5049502;28;20082;-71
2022/12/05 09:35:02;;;;;;;;;;;12.70;99.90;;;;;;5049669;28;20081;-71
2022/12/05 09:37:29;;;;;;;83.40;50.75;;;12.70;99.90;;;;;;5048726;28;20476;-71
2022/12/05 09:39:55;;;;;;;;;;;12.60;99.90;;;;;;5048442;28;20163;-70
2022/12/05 09:42:50;;;;;;;97.00;56.83;;;12.60;99.90;;;;;;5049928;28;20042;-69
2022/12/05 09:45:34;;;;;;;89.47;55.30;;;12.50;99.90;;;;;;5032935;28;20535;-70
2022/12/05 09:48:12;;;;;;;92.57;53.70;;;12.60;99.90;;;;;;5049276;28;20069;-72
2022/12/05 09:50:45;;;;;;;104.07;61.25;;;12.60;99.90;;;;;;5046790;28;20120;-73
2022/12/05 09:53:23;;;;;;;98.00;59.42;;;12.60;99.90;;;;;;5047959;28;21094;-71
2022/12/05 09:56:08;;;;;;;101.68;59.95;;;12.60;99.90;;;;;;5048291;28;20076;-71
2022/12/05 09:58:51;;;;;;;101.07;61.90;;;12.70;99.90;;;;;;5046706;28;20076;-69
2022/12/05 10:01:33;;;;;;;94.18;57.75;;;12.70;99.90;;;;;;5046219;28;20538;-71
2022/12/05 10:04:34;;;;;;;105.82;59.78;;;12.70;99.90;;;;;;5049156;28;20076;-70
2022/12/05 10:07:24;;;;;;;95.68;59.15;;;12.70;99.90;;;;;;5047752;28;20439;-71
2022/12/05 10:10:02;;;;;;;92.90;56.50;;;12.70;99.90;;;;;;5046997;28;20070;-72
2022/12/05 10:12:53;;;;;;;102.60;63.08;;;12.60;99.90;;;;;;5048013;28;20135;-70
2022/12/05 10:15:28;;;;;;;103.30;63.92;;;12.60;99.90;;;;;;5047775;28;20131;-71
2022/12/05 10:18:09;;;;;;;106.72;62.22;;;12.60;99.90;;;;;;5047611;28;20074;-69
2022/12/05 10:21:17;;;;;;;104.03;64.80;;;12.60;99.90;;;;;;5048110;28;20077;-72
2022/12/05 10:23:56;;;;;;;106.78;64.30;;;12.60;99.90;;;;;;4995975;28;20154;-72
2022/12/05 10:26:27;;;;;;;101.50;63.10;;;12.60;99.90;;;;;;4996149;28;20236;-70
2022/12/05 10:29:17;;;;;;;96.32;64.78;;;12.60;99.90;;;;;;4998054;28;20425;-71
2022/12/05 10:31:46;;;;;;;98.40;63.78;;;12.60;99.90;;;;;;4999157;28;20491;-69
2022/12/05 10:34:27;;;;;;;108.93;67.45;;;12.60;99.90;;;;;;5000335;28;20086;-72
2022/12/05 10:37:18;;;;;;;104.00;66.72;;;12.40;99.90;;;;;;5002369;28;20074;-72
2022/12/05 10:39:46;;;;;;;95.40;63.03;;;12.50;99.90;;;;;;4998832;28;20071;-72
2022/12/05 10:42:16;;;;;;;99.68;66.03;;;12.50;99.90;;;;;;4999884;28;20086;-71
2022/12/05 10:44:43;;;;;;;109.32;64.55;;;12.50;99.90;;;;;;4981100;28;20071;-71
2022/12/05 10:47:10;;;;;;;107.00;65.95;;;12.50;99.90;;;;;;4998958;28;20148;-71
2022/12/05 10:49:37;;;;;;;101.10;63.95;;;12.50;99.90;;;;;;5003175;28;20161;-71
2022/12/05 10:52:05;;;;;;;97.03;60.05;;;12.50;99.90;;;;;;4999607;28;20563;-70
2022/12/05 10:54:39;;;;;;;106.80;65.82;;;12.50;99.90;;;;;;5022388;28;20082;-67
2022/12/05 10:57:24;;;;;;;110.15;69.18;;;12.40;99.90;;;;;;5051365;28;20094;-69
2022/12/05 10:59:51;;;;;;;104.35;67.60;;;12.40;99.90;;;;;;5049320;28;20077;-72
2022/12/05 11:02:36;;;;;;;103.15;65.45;;;12.40;99.90;;;;;;5052175;28;20161;-68
2022/12/05 11:05:03;;;;;;;105.18;69.38;;;12.50;99.90;;;;;;5050909;28;20121;-70
2022/12/05 11:07:32;;;;;;;105.85;65.03;;;12.40;99.90;;;;;;5052168;28;20069;-67
2022/12/05 11:10:01;;;;;;;103.57;66.80;;;12.40;99.90;;;;;;5051030;28;20097;-71
2022/12/05 11:12:38;;;;;;;104.47;64.10;;;12.40;99.90;;;;;;5051468;28;20093;-70
2022/12/05 11:15:21;;;;;;;109.57;65.60;;;12.40;99.90;;;;;;5049802;28;20135;-69
2022/12/05 11:17:49;;;;;;;99.28;61.85;;;12.40;99.90;;;;;;5051859;28;21365;-71
2022/12/05 11:20:18;;;;;;;102.85;61.70;;;12.40;99.90;;;;;;5047838;28;20151;-71
2022/12/05 11:22:47;;;;;;;103.55;64.60;;;12.40;99.90;;;;;;5051282;28;20116;-69
2022/12/05 11:25:28;;;;;;;106.40;63.05;;;12.30;99.90;;;;;;5051516;28;20089;-70
2022/12/05 11:27:55;;;;;;;94.40;64.82;;;12.40;99.90;;;;;;5051295;28;20085;-71
2022/12/05 11:30:26;;;;;;;89.80;61.45;;;12.30;99.90;;;;;;5051631;28;20427;-70
2022/12/05 11:33:29;;;;;;;89.97;59.15;;;12.30;99.90;;;;;;5050012;28;20089;-69
2022/12/05 11:36:04;;;;;;;91.60;58.38;;;12.30;99.90;;;;;;4963600;28;20481;-71
2022/12/05 11:38:33;;;;;;;92.03;60.13;;;12.30;99.90;;;;;;4957565;28;20150;-74
2022/12/05 11:41:02;;;;;;;104.47;65.75;;;12.30;99.90;;;;;;4964176;28;20541;-70
2022/12/05 11:43:34;;;;;;;95.57;59.72;;;12.20;99.90;;;;;;4960609;28;20118;-70
2022/12/05 11:46:34;;;;;;;101.78;64.75;;;12.30;99.90;;;;;;4953869;28;20104;-71
2022/12/05 11:49:06;;;;;;;92.68;58.80;;;12.30;99.90;;;;;;4962780;28;20120;-75
2022/12/05 11:52:01;;;;;;;98.75;61.17;;;12.30;99.90;;;;;;4961781;28;20103;-68
2022/12/05 11:54:40;;;;;;;101.75;65.30;;;12.30;99.90;;;;;;4960934;28;20134;-73
2022/12/05 11:57:12;;;;;;;95.57;59.88;;;12.20;99.90;;;;;;4958829;28;20178;-68
2022/12/05 12:00:15;;;;;;;93.65;61.50;;;12.20;99.90;;;;;;4958121;28;20076;-71
2022/12/05 12:02:58;;;;;;;94.72;60.65;;;12.10;99.90;;;;;;4960924;28;20095;-69
2022/12/05 12:05:32;;;;;;;107.65;65.15;;;12.10;99.90;;;;;;4958888;28;20108;-69
2022/12/05 12:08:18;;;;;;;108.25;64.85;;;12.00;99.90;;;;;;4944889;28;20676;-69
2022/12/05 12:11:08;;;;;;;99.18;65.05;;;11.90;99.90;;;;;;4978128;28;20172;-73
2022/12/05 12:14:07;;;;;;;103.82;64.90;;;11.90;99.90;;;;;;5049427;28;20134;-71
2022/12/05 12:16:48;;;;;;;104.97;65.25;;;11.80;99.90;;;;;;5048788;28;20081;-69
2022/12/05 12:19:30;;;;;;;107.63;66.47;;;12.00;99.90;;;;;;5048027;28;20077;-68
2022/12/05 12:22:22;;;;;;;111.03;71.82;;;12.00;99.90;;;;;;5047922;28;20427;-70
2022/12/05 12:25:00;;;;;;;122.50;76.03;;;12.00;99.90;;;;;;5050157;28;20085;-71
2022/12/05 12:27:29;;;;;;;108.55;65.85;;;12.00;99.90;;;;;;5049393;28;20119;-70
2022/12/05 12:29:58;;;;;;;104.10;64.22;;;12.00;99.90;;;;;;5047731;28;20104;-77
2022/12/05 12:32:47;;;;;;;105.85;67.68;;;12.00;99.90;;;;;;5050305;28;20120;-69
2022/12/05 12:35:35;;;;;;;102.10;65.05;;;12.00;99.90;;;;;;5047806;28;20069;-70
2022/12/05 12:38:33;;;;;;;100.50;67.93;;;12.00;99.90;;;;;;5046322;28;20415;-71
2022/12/05 12:40:59;;;;;;;;;;;11.90;99.90;;;;;;5048584;28;20546;-72
2022/12/05 12:43:35;;;;;;;112.93;70.25;;;11.80;99.90;;;;;;5048852;28;20011;-73
2022/12/05 12:46:04;;;;;;;100.13;64.05;;;11.80;99.90;;;;;;5049753;28;20093;-72
2022/12/05 12:48:43;;;;;;;104.63;63.53;;;11.90;99.90;;;;;;5049003;28;20419;-71
2022/12/05 12:51:12;;;;;;;93.80;61.60;;;11.90;99.90;;;;;;5049480;28;20122;-71
2022/12/05 12:53:42;;;;;;;98.60;64.70;;;11.90;99.90;;;;;;5048994;28;20484;-69
2022/12/05 12:56:28;;;;;;;84.63;57.28;;;11.80;99.90;;;;;;5049153;28;20076;-71
2022/12/05 12:59:06;;;;;;;100.30;63.05;;;11.80;99.90;;;;;;5046865;28;20072;-69
2022/12/05 13:01:54;;;;;;;101.65;69.22;;;11.80;99.90;;;;;;5047600;28;20081;-71
2022/12/05 13:04:23;;;;;;;;;;;11.80;99.90;;;;;;5048468;28;20099;-66
2022/12/05 13:06:56;;;;;;;118.60;78.10;;;11.80;99.90;;;;;;5049242;28;20048;-68